Bethel, MO

6:37 AM CST on February 09, 2016 (GMT -0600)
Stoneburner | | Change Station
CLOSE
Current Station
Personal Weather Station
Location: Shelbyville, MO
Elevation: 764 ft
Nearby Weather Stations

Elev 764 ft 39.80 °N, 92.04 °W | Updated 2 seconds ago

Overcast
Overcast
14.9 °F
Feels Like 4 °F
N
7.8
Wind Variable Wind from WNW
Gusts 16.1 mph

Today
High -- | Low -- °F
--% Chance of Precip.
Yesterday
High -- | Low -- °F
Precip. -- in
Pressure 30.02 in
Visibility 8.0 miles
Clouds Scattered Clouds 2500 ft
Mostly Cloudy 3700 ft
Overcast 5500 ft
Windchill 4 °F
Dew Point 11 °F
Humidity 85%
Rainfall 0.00 in
Snow Depth Not available.
7:08 AM 5:36 PM
New Moon, 1% visible
SPECI KIRK 091225Z AUTO 32013G21KT 8SM -SN SCT025 BKN037 OVC055 M10/M16 A3002 RMK AO2 P0000 T11001156 $
Pressure 30.02 in
Visibility 8.0 miles
Clouds Scattered Clouds 2500 ft
Mostly Cloudy 3700 ft
Overcast 5500 ft
Windchill 4 °F
Dew Point 11 °F
Humidity 85%
Rainfall 0.00 in
Snow Depth Not available.
7:08 AM 5:36 PM
New Moon, 1% visible
SPECI KIRK 091225Z AUTO 32013G21KT 8SM -SN SCT025 BKN037 OVC055 M10/M16 A3002 RMK AO2 P0000 T11001156 $

10-Day Weather Forecast

Almanac

Astronomy

Feb. 09, 2016 Rise Set
Actual Time
Civil Twilight
Nautical Twilight
Astronomical Twilight
Moon
Length of Visible Light
Length of Day
Tomorrow will be .
, % of the Moon is Illuminated

Today's Extremes

State Highs State Lows

Community

WunderPhotos

Upload Photos

1,891,589 photos uploaded!

WunderBlog® & News

Nearby

Air Quality

  Air Quality AQ Index Pollutant
Not available.

Snow Depth

Station Depth Elevation

Earthquake Activity

City Distance Mag. Time & Date
Minimum magnitude displayed is 2.5.

Coastal Water Temperatures

Place Temperature

Stations

Nearby Weather Stations

Station Location Temp. Windchill Dew Point Humidity Wind Precip. Elev Updated Type
                   

Watches & Warnings

There are currently no watches in effect.